Track Кудряшов Максим

Time Latitude Longitude Accuracy (66% radius in meters) Altitude (meters) Speed (km/hour) Bearing (degrees) Battery (%) GPS flag
07:59:30 57.203879 60.118261 6.4320001602173 313.654296875 2.1900000572205 145.10000610352 54 1 delete
07:59:26 57.203942 60.118192 5.3600001335144 310.78088378906 1.7000000476837 149.80000305176 54 1 delete
07:59:24 57.203965 60.118154 5.3600001335144 310.02178955078 1.6299999952316 124.80000305176 54 1 delete
07:59:20 57.204042 60.118056 4.2880001068115 307.74084472656 4.0900001525879 150 54 1 delete
07:59:17 57.204122 60.117954 5.3600001335144 312.26696777344 2.9300000667572 137.89999389648 54 1 delete
07:59:15 57.204170 60.117870 9.6480007171631 309.29431152344 3.2200000286102 146.30000305176 54 1 delete
07:59:14 57.204203 60.117809 9.6480007171631 309.3955078125 1.4400000572205 147.5 54 1 delete
07:59:11 57.204282 60.117731 9.6480007171631 309.94110107422 2.1199998855591 151.19999694824 54 1 delete
07:59:08 57.204398 60.117636 9.6480007171631 308.32580566406 4.8800001144409 153.19999694824 54 1 delete
07:59:05 57.204511 60.117536 9.6480007171631 308.18542480469 3.2400000095367 154.10000610352 54 1 delete
07:59:04 57.204552 60.117509 9.6480007171631 307.96435546875 3.5299999713898 155.80000305176 54 1 delete
07:59:03 57.204596 60.117482 9.6480007171631 308.10943603516 3.710000038147 156.80000305176 54 1 delete
07:59:01 57.204692 60.117430 9.6480007171631 308.59240722656 3.9300000667572 171.30000305176 54 1 delete
07:58:59 57.204792 60.117429 9.6480007171631 310.36450195312 4.0500001907349 196.80000305176 54 1 delete
07:58:55 57.204909 60.117492 9.6480007171631 314.2978515625 2.8699998855591 196.80000305176 54 1 delete
07:58:53 57.204954 60.117527 9.6480007171631 315.07739257812 1.6599999666214 187.89999389648 54 1 delete
07:58:51 57.204998 60.117538 9.6480007171631 315.77941894531 1.3500000238419 178.89999389648 54 1 delete
07:58:48 57.205113 60.117565 9.6480007171631 315.46826171875 1.0599999427795 172.89999389648 54 1 delete
07:58:42 57.205223 60.117602 9.6480007171631 314.91149902344 1.289999961853 345.39999389648 54 1 delete
07:58:39 57.205218 60.117532 9.6480007171631 315.82696533203 1.4199999570847 100.80000305176 54 1 delete
07:58:34 57.205255 60.117378 9.6480007171631 318.46569824219 1.6699999570847 78.199996948242 54 1 delete
07:58:32 57.205244 60.117323 9.6480007171631 318.62963867188 2.2999999523163 97.5 54 1 delete
07:58:21 57.205329 60.117158 9.6480007171631 315.99145507812 0.73000001907349 160.39999389648 54 1 delete
07:58:11 57.205325 60.117219 9.6480007171631 316.35144042969 0.81000000238419 348.20001220703 54 1 delete
07:58:10 57.205313 60.117230 9.6480007171631 317.69580078125 0.46999999880791 11.89999961853 54 1 delete
07:58:00 57.205210 60.117250 9.6480007171631 317.80535888672 0 0 54 1 delete
07:57:49 57.205179 60.117253 10.720000267029 319.33312988281 0 0 54 1 delete
07:57:42 57.205222 60.117226 10.720000267029 319.92272949219 1.4500000476837 12.800000190735 54 1 delete
07:57:38 57.205144 60.117229 9.6480007171631 315.3017578125 1.210000038147 6.5 54 1 delete
07:57:37 57.205117 60.117244 9.6480007171631 313.70556640625 2.5599999427795 346.39999389648 54 1 delete
07:57:33 57.205022 60.117231 9.6480007171631 312.83728027344 2.6700000762939 34.599998474121 54 1 delete
07:57:28 57.204927 60.117157 9.6480007171631 312.97973632812 0 0 54 1 delete
07:57:20 57.204864 60.117040 10.720000267029 317.26483154297 1.2699999809265 16.799999237061 54 1 delete
07:57:15 57.204779 60.116971 10.720000267029 311.50598144531 1.4299999475479 16.39999961853 54 1 delete
07:57:14 57.204756 60.116957 10.720000267029 310.66003417969 2.4700000286102 29.10000038147 54 1 delete
07:57:10 57.204694 60.116907 10.720000267029 307.77001953125 1.4099999666214 138.60000610352 54 1 delete
07:57:03 57.204715 60.116838 10.720000267029 310.06579589844 1.960000038147 172.5 54 1 delete
07:56:55 57.204717 60.116735 10.720000267029 301.11578369141 1.2400000095367 67.699996948242 54 1 delete
07:56:52 57.204704 60.116684 10.720000267029 301.66809082031 1.5 21.10000038147 54 1 delete
07:56:47 57.204682 60.116573 10.720000267029 298.62683105469 0.91000002622604 56.799999237061 54 1 delete
07:56:42 57.204637 60.116425 10.720000267029 306.58666992188 1.8899999856949 48.200000762939 54 1 delete
07:56:41 57.204622 60.116404 10.720000267029 310.42413330078 1.25 74 54 1 delete
07:56:36 57.204548 60.116323 10.720000267029 300.94281005859 1.4099999666214 106.59999847412 54 1 delete
07:56:30 57.204552 60.116140 10.720000267029 304.8515625 1.460000038147 131.39999389648 54 1 delete
07:56:25 57.204607 60.115978 11.791999816895 313.76672363281 1.5900000333786 148.39999389648 54 1 delete
07:56:20 57.204665 60.115872 10.720000267029 299.10980224609 1.3500000238419 112.19999694824 54 1 delete
07:56:19 57.204668 60.115841 10.720000267029 298.98010253906 2.2699999809265 116.09999847412 54 1 delete
07:56:11 57.204685 60.115658 10.720000267029 306.82385253906 0.93000000715256 61.799999237061 54 1 delete
07:56:09 57.204666 60.115597 10.720000267029 299.15716552734 1.4299999475479 84.5 54 1 delete
07:56:06 57.204677 60.115477 10.720000267029 300.77276611328 1.9400000572205 84 54 1 delete